DISCO EDWJ-EDWY

Flight info

Callsign DISCO
Flight time N/A
Altitude 1000
Route DCT
Aircraft DA62/L-SDFGRY/C

Departure

Time N/A
Airport Juist Airport (EDWJ)

Arrival

Time 2026-05-05 23:44
Airport Norderney Airport (EDWY)
Time Latitude Longitude Altitude Speed Heading
2026-05-05 23:44 53.68183 7.05645 11 ft 0 kts 168°
2026-05-05 23:47 53.68175 7.05647 11 ft 6 kts 171°
2026-05-05 23:47 53.68147 7.05547 11 ft 11 kts 255°
2026-05-05 23:48 53.68132 7.05443 12 ft 7 kts 257°
2026-05-05 23:48 53.68116 7.05329 14 ft 15 kts 257°
2026-05-05 23:48 53.68093 7.05166 12 ft 6 kts 255°
2026-05-05 23:48 53.68066 7.05140 11 ft 8 kts 135°
2026-05-05 23:49 53.68072 7.05264 13 ft 18 kts 75°
2026-05-05 23:49 53.68158 7.05865 8 ft 84 kts 76°
2026-05-05 23:49 53.68308 7.06959 201 ft 104 kts 77°
2026-05-05 23:49 53.68500 7.08244 380 ft 121 kts 73°
2026-05-05 23:50 53.68875 7.09578 495 ft 135 kts 54°
2026-05-05 23:50 53.69435 7.10950 497 ft 147 kts 56°
2026-05-05 23:50 53.69932 7.12501 504 ft 153 kts 65°
2026-05-05 23:50 53.70281 7.14208 511 ft 155 kts 73°
2026-05-05 23:51 53.70432 7.15979 510 ft 142 kts 89°
2026-05-05 23:51 53.70450 7.17556 416 ft 129 kts 87°
2026-05-05 23:51 53.70510 7.19011 393 ft 121 kts 86°
2026-05-05 23:51 53.70581 7.20394 276 ft 107 kts 85°
2026-05-05 23:52 53.70623 7.21505 113 ft 86 kts 86°
2026-05-05 23:52 53.70663 7.22442 19 ft 74 kts 85°
2026-05-05 23:52 53.70699 7.23163 7 ft 50 kts 86°
2026-05-05 23:52 53.70719 7.23636 10 ft 21 kts 86°
2026-05-05 23:53 53.70751 7.23704 12 ft 9 kts 311°
2026-05-05 23:53 53.70781 7.23546 8 ft 18 kts 285°
2026-05-05 23:53 53.70803 7.23316 6 ft 19 kts 265°
2026-05-05 23:53 53.70789 7.23111 6 ft 16 kts 264°
2026-05-05 23:54 53.70777 7.22934 7 ft 14 kts 261°
2026-05-05 23:54 53.70790 7.22854 8 ft 6 kts 267°
2026-05-05 23:54 53.70784 7.22797 9 ft 4 kts 259°